createdAt,value
2017-11-14T00:01:57.060Z,1.59
2017-11-14T00:04:29.080Z,1.73
2017-11-14T00:06:59.493Z,1.87
2017-11-14T00:09:30.815Z,1.87
2017-11-14T00:12:01.388Z,1.79
2017-11-14T00:17:05.603Z,1.79
2017-11-14T00:19:35.359Z,1.84
2017-11-14T00:22:06.190Z,1.82
2017-11-14T00:24:37.731Z,1.77
2017-11-14T00:27:09.930Z,1.83
2017-11-14T00:29:40.200Z,1.82
2017-11-14T00:32:10.044Z,1.91
2017-11-14T00:34:39.930Z,2.06
2017-11-14T00:37:09.875Z,2.17
2017-11-14T00:39:39.758Z,2.27
2017-11-14T00:44:45.696Z,2.37
2017-11-14T00:47:16.118Z,2.45
2017-11-14T00:49:50.169Z,2.45
2017-11-14T00:52:22.272Z,2.40
2017-11-14T00:54:52.680Z,2.36
2017-11-14T01:02:42.845Z,2.32
2017-11-14T01:05:18.180Z,2.33
2017-11-14T01:07:53.118Z,2.34
2017-11-14T01:15:30.892Z,2.53
2017-11-14T01:18:02.592Z,2.58
2017-11-14T01:20:36.296Z,2.81
2017-11-14T01:23:06.193Z,2.96
2017-11-14T01:25:36.142Z,2.96
2017-11-14T01:28:08.320Z,2.96
2017-11-14T01:30:41.603Z,2.94
2017-11-14T01:33:12.247Z,2.89
2017-11-14T01:35:42.280Z,2.84
2017-11-14T01:38:12.360Z,2.76
2017-11-14T01:40:42.348Z,2.70
2017-11-14T01:43:12.281Z,2.76
2017-11-14T01:45:44.287Z,2.93
2017-11-14T01:48:15.044Z,2.88
2017-11-14T01:50:45.853Z,2.78
2017-11-14T01:53:16.209Z,2.89
2017-11-14T01:55:46.186Z,2.79
2017-11-14T01:58:16.333Z,2.83
2017-11-14T02:00:52.185Z,2.84
2017-11-14T02:03:25.497Z,2.89
2017-11-14T02:05:55.340Z,3.06
2017-11-14T02:08:28.730Z,3.04
2017-11-14T02:10:59.734Z,2.93
2017-11-14T02:13:33.206Z,2.82
2017-11-14T02:16:04.087Z,2.70
2017-11-14T02:18:37.149Z,2.60
2017-11-14T02:23:41.437Z,2.44
2017-11-14T02:26:11.334Z,2.40
2017-11-14T02:31:15.316Z,2.23
2017-11-14T02:38:54.015Z,2.36
2017-11-14T02:51:40.640Z,2.32
2017-11-14T03:07:06.670Z,1.35
2017-11-14T03:12:15.224Z,1.47
2017-11-14T03:25:09.762Z,1.16
2017-11-14T03:48:20.760Z,1.36
2017-11-14T04:14:23.765Z,1.03
2017-11-14T04:19:29.163Z,1.27
2017-11-14T04:22:02.460Z,1.19
2017-11-14T04:24:34.260Z,1.10
2017-11-14T04:32:16.597Z,1.42
2017-11-14T04:34:47.978Z,1.38
2017-11-14T04:37:18.573Z,1.33
2017-11-14T04:39:48.834Z,1.38
2017-11-14T04:42:18.721Z,1.46
2017-11-14T04:44:50.307Z,1.58
2017-11-14T04:47:20.302Z,1.60
2017-11-14T04:49:50.313Z,1.67
2017-11-14T04:52:21.899Z,1.54
2017-11-14T04:57:25.909Z,1.40
2017-11-14T05:02:31.106Z,1.42
2017-11-14T05:05:02.647Z,1.42
2017-11-14T05:07:37.348Z,1.39
2017-11-14T05:10:08.822Z,1.33
2017-11-14T05:12:39.255Z,1.35
2017-11-14T05:15:10.626Z,1.42
2017-11-14T05:22:51.656Z,1.53
2017-11-14T05:25:22.371Z,1.39
2017-11-14T05:43:54.200Z,1.36
2017-11-14T05:56:58.663Z,1.71
2017-11-14T05:59:28.494Z,1.87
2017-11-14T06:02:02.221Z,1.87
2017-11-14T06:04:31.846Z,1.77
2017-11-14T06:07:01.665Z,1.68
2017-11-14T06:09:35.617Z,1.45
2017-11-14T06:12:05.405Z,1.39
2017-11-14T06:17:24.341Z,1.18
2017-11-14T06:19:54.713Z,1.18
2017-11-14T06:22:24.690Z,1.14
2017-11-14T06:24:54.550Z,1.15
2017-11-14T06:27:42.959Z,1.33
2017-11-14T06:30:15.247Z,1.31
2017-11-14T06:32:45.538Z,1.32
2017-11-14T06:35:18.590Z,1.35
2017-11-14T06:37:48.680Z,1.42
2017-11-14T06:40:19.175Z,1.50
2017-11-14T06:42:49.186Z,1.45
2017-11-14T06:45:19.448Z,1.60
2017-11-14T06:47:49.455Z,1.64
2017-11-14T06:50:19.314Z,1.82
2017-11-14T06:52:49.324Z,1.95
2017-11-14T06:55:19.626Z,2.22
2017-11-14T06:57:49.551Z,2.45
2017-11-14T07:00:19.569Z,2.72
2017-11-14T07:02:49.546Z,3.01
2017-11-14T07:05:20.504Z,3.20
2017-11-14T07:07:50.612Z,3.44
2017-11-14T07:10:20.617Z,3.60
2017-11-14T07:12:50.443Z,3.64
2017-11-14T07:15:20.348Z,3.64
2017-11-14T07:17:49.908Z,3.61
2017-11-14T07:20:19.862Z,3.57
2017-11-14T07:22:50.108Z,3.57
2017-11-14T07:25:20.003Z,3.70
2017-11-14T07:27:50.837Z,3.87
2017-11-14T07:30:20.657Z,3.87
2017-11-14T07:32:50.814Z,3.94
2017-11-14T07:35:20.901Z,4.17
2017-11-14T07:37:51.075Z,4.39
2017-11-14T07:40:21.271Z,4.36
2017-11-14T07:42:51.103Z,4.42
2017-11-14T07:45:21.004Z,4.48
2017-11-14T07:47:51.795Z,4.66
2017-11-14T07:50:21.730Z,4.69
2017-11-14T07:52:51.941Z,4.76
2017-11-14T07:55:21.895Z,4.78
2017-11-14T07:57:51.799Z,4.98
2017-11-14T08:00:22.574Z,5.16
2017-11-14T08:02:53.288Z,5.40
2017-11-14T08:05:24.807Z,5.44
2017-11-14T08:07:54.701Z,5.31
2017-11-14T08:10:26.062Z,5.27
2017-11-14T08:12:56.592Z,5.35
2017-11-14T08:15:26.937Z,5.59
2017-11-14T08:17:56.957Z,5.84
2017-11-14T08:20:27.173Z,5.98
2017-11-14T08:22:57.791Z,6.03
2017-11-14T08:25:27.872Z,5.91
2017-11-14T08:27:58.758Z,5.82
2017-11-14T08:30:29.241Z,5.95
2017-11-14T08:32:59.184Z,5.91
2017-11-14T08:35:29.483Z,5.97
2017-11-14T08:37:59.475Z,6.39
2017-11-14T08:40:31.607Z,6.78
2017-11-14T08:43:02.067Z,7.39
2017-11-14T08:45:36.373Z,8.61
2017-11-14T08:48:06.575Z,11.17
2017-11-14T08:50:36.549Z,12.97
2017-11-14T08:53:06.667Z,14.18
2017-11-14T08:55:36.522Z,14.59
2017-11-14T08:58:06.450Z,14.54
2017-11-14T09:00:36.507Z,14.62
2017-11-14T09:03:06.168Z,15.30
2017-11-14T09:05:36.179Z,15.08
2017-11-14T09:08:06.631Z,15.23
2017-11-14T09:10:36.167Z,15.82
2017-11-14T09:13:06.051Z,16.48
2017-11-14T09:15:37.408Z,17.92
2017-11-14T09:18:07.679Z,19.25
2017-11-14T09:20:37.791Z,19.11
2017-11-14T09:23:07.598Z,17.67
2017-11-14T09:25:37.930Z,17.16
2017-11-14T09:28:07.232Z,15.67
2017-11-14T09:30:36.561Z,16.11
2017-11-14T09:33:06.157Z,16.51
2017-11-14T09:35:35.782Z,15.99
2017-11-14T09:38:05.793Z,14.91
2017-11-14T09:40:35.706Z,15.10
2017-11-14T09:43:05.552Z,14.78
2017-11-14T09:45:35.415Z,14.54
2017-11-14T09:48:05.055Z,14.92
2017-11-14T09:50:34.536Z,14.74
2017-11-14T09:53:03.857Z,15.22
2017-11-14T09:55:33.846Z,16.41
2017-11-14T09:58:03.415Z,16.93
2017-11-14T10:00:33.293Z,15.35
2017-11-14T10:03:02.813Z,14.98
2017-11-14T10:05:32.353Z,15.26
2017-11-14T10:08:02.033Z,16.60
2017-11-14T10:10:31.851Z,17.16
2017-11-14T10:13:01.338Z,15.52
2017-11-14T10:15:31.273Z,15.35
2017-11-14T10:18:01.288Z,15.32
2017-11-14T10:20:30.766Z,16.26
2017-11-14T10:23:00.486Z,16.41
2017-11-14T10:25:30.271Z,19.29
2017-11-14T10:28:00.560Z,19.48
2017-11-14T10:30:31.590Z,21.13
2017-11-14T10:33:01.309Z,21.74
2017-11-14T10:35:32.505Z,22.71
2017-11-14T10:38:02.534Z,22.17
2017-11-14T10:40:41.064Z,22.85
2017-11-14T10:43:14.600Z,23.85
2017-11-14T10:48:23.141Z,23.37
2017-11-14T10:51:02.585Z,22.08
2017-11-14T10:53:43.894Z,24.57
2017-11-14T10:59:00.949Z,25.40
2017-11-14T11:01:32.910Z,23.53
2017-11-14T11:04:05.595Z,24.24
2017-11-14T11:06:37.116Z,23.65
2017-11-14T11:11:43.083Z,25.48
2017-11-14T11:14:21.774Z,24.22
2017-11-14T11:19:48.392Z,25.87
2017-11-14T11:32:48.989Z,24.40
2017-11-14T11:35:37.911Z,25.42
2017-11-14T11:41:05.472Z,27.00
2017-11-14T11:43:42.332Z,25.80
2017-11-14T12:05:05.233Z,29.42
2017-11-14T12:19:27.865Z,26.90
2017-11-14T12:21:57.752Z,26.10
2017-11-14T12:24:27.359Z,27.01
2017-11-14T12:26:57.044Z,26.33
2017-11-14T12:29:26.569Z,27.56
2017-11-14T12:31:56.330Z,28.08
2017-11-14T12:34:25.840Z,27.19
2017-11-14T12:36:56.358Z,26.07
2017-11-14T12:39:25.782Z,26.69
2017-11-14T12:41:55.239Z,26.98
2017-11-14T12:44:24.713Z,25.33
2017-11-14T12:46:54.144Z,24.99
2017-11-14T12:49:24.149Z,27.83
2017-11-14T13:40:16.561Z,24.38
2017-11-14T13:42:46.340Z,24.35
2017-11-14T13:45:16.007Z,24.55
2017-11-14T13:47:45.728Z,23.55
2017-11-14T13:50:15.183Z,23.19
2017-11-14T13:52:45.071Z,24.03
2017-11-14T13:55:14.594Z,23.37
2017-11-14T13:57:44.312Z,22.85
2017-11-14T14:00:14.314Z,22.13
2017-11-14T14:02:43.897Z,22.76
2017-11-14T14:05:13.670Z,20.58
2017-11-14T14:07:43.954Z,19.99
2017-11-14T14:10:14.119Z,20.15
2017-11-14T14:12:43.907Z,20.76
2017-11-14T14:15:13.382Z,20.58
2017-11-14T14:17:42.850Z,19.23
2017-11-14T14:20:12.317Z,19.73
2017-11-14T14:22:41.896Z,19.36
2017-11-14T14:25:11.375Z,18.87
2017-11-14T14:27:40.833Z,19.07
2017-11-14T14:30:10.331Z,17.86
2017-11-14T14:32:39.883Z,17.93
2017-11-14T14:35:09.280Z,17.24
2017-11-14T14:37:43.146Z,17.11
2017-11-14T14:40:12.689Z,17.54
2017-11-14T14:42:42.144Z,15.85
2017-11-14T14:45:11.706Z,15.86
2017-11-14T14:47:41.231Z,15.66
2017-11-14T14:50:10.671Z,13.57
2017-11-14T14:52:40.405Z,12.34
2017-11-14T14:55:10.000Z,10.80
2017-11-14T14:57:39.775Z,10.45
2017-11-14T15:00:09.689Z,9.40
2017-11-14T15:02:39.445Z,8.21
2017-11-14T15:05:09.287Z,6.92
2017-11-14T15:07:39.047Z,6.71
2017-11-14T15:10:08.818Z,6.18
2017-11-14T15:12:38.411Z,5.77
2017-11-14T15:15:08.527Z,5.41
2017-11-14T15:17:39.600Z,5.13
2017-11-14T15:20:11.010Z,4.85
2017-11-14T15:22:44.676Z,4.53
2017-11-14T15:25:14.538Z,4.33
2017-11-14T15:27:44.992Z,4.11
2017-11-14T15:30:14.448Z,3.91
2017-11-14T15:32:44.416Z,3.69
2017-11-14T15:35:14.910Z,3.54
2017-11-14T15:37:44.753Z,3.42
2017-11-14T15:40:14.676Z,3.37
2017-11-14T15:42:44.782Z,3.18
2017-11-14T15:45:14.860Z,3.04
2017-11-14T15:47:44.872Z,2.86
2017-11-14T15:50:14.965Z,2.59
2017-11-14T15:52:48.749Z,2.50
2017-11-14T15:55:18.532Z,2.40
2017-11-14T15:57:48.615Z,2.29
2017-11-14T16:00:19.359Z,2.39
2017-11-14T16:02:49.144Z,2.40
2017-11-14T16:05:18.891Z,2.33
2017-11-14T16:07:48.748Z,2.23
2017-11-14T16:10:18.590Z,2.07
2017-11-14T16:12:49.254Z,1.94
2017-11-14T16:15:19.170Z,1.89
2017-11-14T16:17:49.067Z,1.95
2017-11-14T16:20:18.911Z,1.84
2017-11-14T16:22:50.266Z,1.70
2017-11-14T16:25:20.604Z,1.53
2017-11-14T16:27:50.540Z,1.35
2017-11-14T16:30:20.859Z,1.27
2017-11-14T16:32:50.880Z,1.17
2017-11-14T16:35:21.106Z,1.21
2017-11-14T16:37:51.969Z,1.21
2017-11-14T16:40:21.449Z,1.13
2017-11-14T16:42:51.261Z,1.01
2017-11-14T16:45:21.353Z,0.93
2017-11-14T16:47:51.480Z,0.97
2017-11-14T16:50:24.325Z,1.36
2017-11-14T16:52:54.279Z,1.67
2017-11-14T16:55:24.194Z,1.76
2017-11-14T16:57:54.371Z,1.76
2017-11-14T17:00:24.104Z,1.72
2017-11-14T17:02:53.835Z,1.70
2017-11-14T17:05:23.754Z,1.70
2017-11-14T17:07:53.526Z,1.66
2017-11-14T17:10:23.226Z,1.62
2017-11-14T17:12:53.349Z,1.58
2017-11-14T17:15:24.089Z,1.52
2017-11-14T17:17:54.301Z,1.48
2017-11-14T17:20:25.255Z,1.42
2017-11-14T17:22:55.521Z,1.33
2017-11-14T17:25:26.235Z,1.18
2017-11-14T17:27:56.769Z,1.08
2017-11-14T17:30:26.621Z,0.98
2017-11-14T17:32:56.441Z,0.80
2017-11-14T17:35:30.213Z,0.78
2017-11-14T17:38:00.006Z,0.58
2017-11-14T17:40:30.047Z,0.56
2017-11-14T17:43:00.264Z,0.52
2017-11-14T17:45:31.741Z,0.44
2017-11-14T17:48:01.791Z,0.19
2017-11-14T17:50:31.865Z,0.19
2017-11-14T17:53:01.847Z,0.23
2017-11-14T17:55:31.752Z,0.23
2017-11-14T17:58:01.658Z,-0.03
2017-11-14T18:00:31.492Z,-0.06
2017-11-14T18:03:00.908Z,-0.15
2017-11-14T18:05:36.568Z,-0.24
2017-11-14T18:08:06.501Z,-0.24
2017-11-14T18:10:36.456Z,-0.29
2017-11-14T18:13:06.398Z,-0.27
2017-11-14T18:15:37.280Z,-0.26
2017-11-14T18:18:07.190Z,-0.23
2017-11-14T18:20:37.133Z,-0.20
2017-11-14T18:23:07.210Z,-0.14
2017-11-14T18:25:37.270Z,0.11
2017-11-14T18:28:07.220Z,0.03
2017-11-14T18:30:37.177Z,0.05
2017-11-14T18:33:06.996Z,0.23
2017-11-14T18:35:36.851Z,0.33
2017-11-14T18:38:06.926Z,0.27
2017-11-14T18:40:36.733Z,0.22
2017-11-14T18:43:06.590Z,0.21
2017-11-14T18:45:36.499Z,0.17
2017-11-14T18:48:06.422Z,0.00
2017-11-14T18:50:36.262Z,-0.06
2017-11-14T18:53:06.084Z,-0.34
2017-11-14T18:55:35.847Z,-0.62
2017-11-14T18:58:05.795Z,-0.84
2017-11-14T19:00:35.715Z,-0.87
2017-11-14T19:03:06.131Z,-0.77
2017-11-14T19:05:35.985Z,-0.64
2017-11-14T19:08:09.668Z,-0.56
2017-11-14T19:10:39.435Z,-0.68
2017-11-14T19:13:09.168Z,-0.65
2017-11-14T19:15:38.891Z,-0.88
2017-11-14T19:18:08.731Z,-1.03
2017-11-14T19:20:38.493Z,-1.03
2017-11-14T19:23:08.226Z,-0.92
2017-11-14T19:25:37.971Z,-0.98
2017-11-14T19:28:07.725Z,-1.13
2017-11-14T19:30:37.480Z,-1.06
2017-11-14T19:33:08.977Z,-0.96
2017-11-14T19:35:42.885Z,-1.08
2017-11-14T19:38:15.661Z,-1.20
2017-11-14T19:40:53.516Z,-1.39
2017-11-14T19:43:23.985Z,-1.53
2017-11-14T19:53:42.193Z,-1.54
2017-11-14T19:56:14.208Z,-1.37
2017-11-14T20:09:22.447Z,-1.32
2017-11-14T20:14:28.825Z,-0.90
2017-11-14T20:16:59.608Z,-0.89
2017-11-14T20:24:39.447Z,-1.23
2017-11-14T20:27:09.202Z,-1.14
2017-11-14T20:29:38.954Z,-1.09
2017-11-14T21:38:23.553Z,-1.02
2017-11-14T21:40:56.919Z,-1.23
2017-11-14T21:43:27.893Z,-1.29
2017-11-14T21:46:00.211Z,-1.46
2017-11-14T21:48:46.858Z,-1.55
2017-11-14T21:51:20.655Z,-1.71
2017-11-14T22:00:08.601Z,-1.85
2017-11-14T22:15:45.212Z,-1.14
2017-11-14T22:21:57.506Z,-0.70
2017-11-14T22:58:03.495Z,-0.13
2017-11-14T23:03:55.593Z,0.28
2017-11-14T23:09:17.227Z,0.49
2017-11-14T23:17:18.163Z,0.50
